Time;durP1;ratioP1;P1;durP2;ratioP2;P2;SDS_P1;SDS_P2;PMS_P1;PMS_P2;Temp;Humidity;BMP_temperature;BMP_pressure;BME280_temperature;BME280_humidity;BME280_pressure;Samples;Min_cycle;Max_cycle;Signal;HPM_P1;HPM_P2
2021/01/14 00:00:30;;;;;;;1.30;1.20;;;;;;;;;;5038977;28;20534;-72
2021/01/14 00:02:57;;;;;;;2.30;1.30;;;;;;;;;;5053001;28;20475;-72
2021/01/14 00:05:23;;;;;;;1.40;1.10;;;;;;;;;;5047555;28;20429;-72
2021/01/14 00:07:49;;;;;;;2.30;1.10;;;;;;;;;;5033101;28;20410;-72
2021/01/14 00:10:15;;;;;;;1.50;1.10;;;;;;;;;;5037391;28;20995;-72
2021/01/14 00:12:42;;;;;;;1.40;0.93;;;;;;;;;;5052178;28;20782;-72
2021/01/14 00:15:08;;;;;;;1.60;1.10;;;;;;;;;;5051278;28;20449;-72
2021/01/14 00:17:34;;;;;;;1.80;1.13;;;;;;;;;;5052871;28;20408;-72
2021/01/14 00:20:00;;;;;;;1.70;0.93;;;;;;;;;;5049692;28;20460;-72
2021/01/14 00:22:27;;;;;;;1.43;1.03;;;;;;;;;;5032979;28;20542;-72
2021/01/14 00:24:53;;;;;;;1.40;0.90;;;;;;;;;;5033779;28;20402;-72
2021/01/14 00:27:19;;;;;;;1.50;1.30;;;;;;;;;;5052756;28;20405;-72
2021/01/14 00:29:45;;;;;;;1.40;0.90;;;;;;;;;;5051709;28;20811;-72
2021/01/14 00:32:11;;;;;;;1.80;1.10;;;;;;;;;;5052568;28;20424;-72
2021/01/14 00:34:38;;;;;;;1.50;1.20;;;;;;;;;;5052699;28;20960;-72
2021/01/14 00:39:52;;;;;;;1.50;1.30;;;;;;;;;;5052252;28;20437;-72
2021/01/14 00:42:18;;;;;;;1.20;0.90;;;;;;;;;;5036364;28;20786;-73
2021/01/14 00:44:44;;;;;;;1.50;1.30;;;;;;;;;;5040095;28;20534;-72
2021/01/14 00:47:10;;;;;;;2.00;1.20;;;;;;;;;;5037042;28;20430;-72
2021/01/14 00:49:36;;;;;;;1.40;1.13;;;;;;;;;;5036384;28;20402;-72
2021/01/14 00:52:02;;;;;;;1.47;1.10;;;;;;;;;;5054005;28;20456;-72
2021/01/14 00:54:28;;;;;;;1.70;1.10;;;;;;;;;;5056485;28;20462;-72
2021/01/14 00:56:54;;;;;;;2.47;1.47;;;;;;;;;;5055197;28;20462;-72
2021/01/14 00:59:20;;;;;;;1.30;1.00;;;;;;;;;;5056529;28;20416;-72
2021/01/14 01:01:46;;;;;;;2.07;1.30;;;;;;;;;;5055374;28;20460;-73
2021/01/14 01:04:13;;;;;;;1.57;1.07;;;;;;;;;;5056019;28;20463;-72
2021/01/14 01:06:39;;;;;;;1.30;1.00;;;;;;;;;;5054825;28;20432;-72
2021/01/14 01:09:07;;;;;;;1.43;1.10;;;;;;;;;;5055911;28;20441;-72
2021/01/14 01:11:33;;;;;;;1.50;1.27;;;;;;;;;;5055132;28;20455;-72
2021/01/14 01:13:59;;;;;;;1.97;1.30;;;;;;;;;;5055849;28;20408;-72
2021/01/14 01:16:25;;;;;;;1.80;1.40;;;;;;;;;;5054003;28;20913;-72
2021/01/14 01:18:51;;;;;;;2.10;1.83;;;;;;;;;;5054652;28;20436;-72
2021/01/14 01:21:17;;;;;;;1.87;1.60;;;;;;;;;;5054372;28;21034;-72
2021/01/14 01:23:43;;;;;;;2.13;1.67;;;;;;;;;;5055716;28;20890;-72
2021/01/14 01:26:14;;;;;;;2.43;1.80;;;;;;;;;;5054784;28;20428;-72
2021/01/14 01:28:40;;;;;;;1.83;1.50;;;;;;;;;;5054347;28;20479;-72
2021/01/14 01:31:06;;;;;;;2.10;1.73;;;;;;;;;;5053380;28;20448;-72
2021/01/14 01:33:32;;;;;;;2.60;1.80;;;;;;;;;;5055422;28;20916;-72
2021/01/14 01:35:58;;;;;;;2.10;1.80;;;;;;;;;;5054665;28;20425;-72
2021/01/14 01:38:24;;;;;;;2.03;1.60;;;;;;;;;;5054217;28;20427;-72
2021/01/14 01:41:00;;;;;;;2.10;1.63;;;;;;;;;;5054165;28;20479;-72
2021/01/14 01:43:27;;;;;;;2.23;2.00;;;;;;;;;;5055312;28;20409;-72
2021/01/14 01:45:53;;;;;;;2.70;2.10;;;;;;;;;;5054213;28;20788;-72
2021/01/14 01:48:20;;;;;;;2.13;1.93;;;;;;;;;;5055319;28;20406;-72
2021/01/14 01:50:48;;;;;;;2.20;2.00;;;;;;;;;;5054015;28;20982;-72
2021/01/14 01:53:14;;;;;;;2.30;2.10;;;;;;;;;;5055354;28;20423;-72
2021/01/14 01:55:40;;;;;;;2.60;1.90;;;;;;;;;;5052295;28;20468;-72
2021/01/14 01:58:06;;;;;;;2.50;2.20;;;;;;;;;;5055194;28;20934;-72
2021/01/14 02:00:32;;;;;;;2.80;2.40;;;;;;;;;;5053905;28;20512;-72
2021/01/14 02:02:58;;;;;;;2.20;2.00;;;;;;;;;;5054989;28;20836;-72
2021/01/14 02:05:24;;;;;;;3.27;2.37;;;;;;;;;;5053804;28;20495;-72
2021/01/14 02:08:06;;;;;;;2.87;2.10;;;;;;;;;;5055039;28;20501;-72
2021/01/14 02:10:33;;;;;;;2.67;2.23;;;;;;;;;;5053889;28;21044;-72
2021/01/14 02:12:58;;;;;;;2.67;2.43;;;;;;;;;;5054764;28;20415;-72
2021/01/14 02:15:27;;;;;;;2.50;2.20;;;;;;;;;;5053410;28;20409;-72
2021/01/14 02:17:53;;;;;;;2.27;1.93;;;;;;;;;;5054699;28;20404;-72
2021/01/14 02:20:20;;;;;;;2.53;2.20;;;;;;;;;;5053634;28;20430;-72
2021/01/14 02:22:51;;;;;;;2.80;2.10;;;;;;;;;;5034481;28;20427;-72
2021/01/14 02:25:22;;;;;;;2.20;1.80;;;;;;;;;;5040624;28;20792;-72
2021/01/14 02:27:49;;;;;;;3.30;2.17;;;;;;;;;;5054452;28;20389;-72
2021/01/14 02:30:16;;;;;;;2.50;1.63;;;;;;;;;;5054484;28;20785;-72
2021/01/14 02:32:44;;;;;;;2.67;1.87;;;;;;;;;;5034319;28;20437;-72
2021/01/14 02:35:11;;;;;;;4.47;2.10;;;;;;;;;;5036333;28;21016;-72
2021/01/14 02:37:37;;;;;;;2.20;1.60;;;;;;;;;;5036187;28;20929;-72
2021/01/14 02:40:03;;;;;;;3.20;2.30;;;;;;;;;;5034276;28;20449;-73
2021/01/14 02:42:29;;;;;;;3.40;2.30;;;;;;;;;;5067001;22;20860;-68
2021/01/14 02:44:55;;;;;;;3.70;2.03;;;;;;;;;;5054018;28;20401;-68
2021/01/14 02:47:22;;;;;;;2.50;1.87;;;;;;;;;;5042632;28;20461;-66
2021/01/14 02:49:55;;;;;;;2.30;1.70;;;;;;;;;;5034414;28;20761;-67
2021/01/14 02:52:23;;;;;;;2.27;1.90;;;;;;;;;;5045531;28;20539;-67
2021/01/14 02:54:49;;;;;;;2.40;1.90;;;;;;;;;;5052226;28;20419;-68
2021/01/14 02:57:16;;;;;;;2.67;2.40;;;;;;;;;;5043712;28;20426;-68
2021/01/14 02:59:43;;;;;;;2.43;2.20;;;;;;;;;;5033946;28;20902;-67
2021/01/14 03:02:09;;;;;;;2.23;2.03;;;;;;;;;;5040435;28;20469;-67
2021/01/14 03:04:35;;;;;;;3.00;2.50;;;;;;;;;;5053996;28;20457;-67
2021/01/14 03:07:00;;;;;;;2.60;2.40;;;;;;;;;;5045631;28;20442;-67
2021/01/14 03:09:27;;;;;;;16.33;2.77;;;;;;;;;;5034203;28;20426;-67
2021/01/14 03:11:53;;;;;;;3.20;2.27;;;;;;;;;;5039860;28;20800;-67
2021/01/14 03:14:19;;;;;;;2.90;2.30;;;;;;;;;;5053627;28;20405;-67
2021/01/14 03:16:45;;;;;;;3.70;2.67;;;;;;;;;;5052615;28;20428;-66
2021/01/14 03:19:11;;;;;;;2.60;2.10;;;;;;;;;;5053691;28;20413;-66
2021/01/14 03:21:37;;;;;;;3.57;2.67;;;;;;;;;;5052855;28;20460;-67
2021/01/14 03:24:03;;;;;;;2.83;2.23;;;;;;;;;;5053634;28;20409;-66
2021/01/14 03:26:29;;;;;;;3.40;2.50;;;;;;;;;;5052434;28;20456;-67
2021/01/14 03:28:55;;;;;;;3.10;2.30;;;;;;;;;;5053553;28;20786;-67
2021/01/14 03:31:21;;;;;;;2.40;2.20;;;;;;;;;;5052507;28;20436;-67
2021/01/14 03:33:49;;;;;;;3.00;2.10;;;;;;;;;;5053609;28;20956;-67
2021/01/14 03:36:16;;;;;;;2.40;2.00;;;;;;;;;;5052644;28;20467;-67
2021/01/14 03:38:42;;;;;;;2.23;2.03;;;;;;;;;;5033591;28;20425;-67
2021/01/14 03:41:09;;;;;;;3.37;2.43;;;;;;;;;;5037420;28;20456;-67
2021/01/14 03:43:36;;;;;;;4.73;2.33;;;;;;;;;;5033715;28;20524;-66
2021/01/14 03:46:06;;;;;;;2.30;1.93;;;;;;;;;;5033823;28;20409;-67
2021/01/14 03:48:37;;;;;;;6.90;2.43;;;;;;;;;;5051952;28;20435;-67
2021/01/14 03:51:03;;;;;;;4.03;2.23;;;;;;;;;;5053115;28;20401;-67
2021/01/14 03:53:29;;;;;;;4.43;2.57;;;;;;;;;;5051068;28;20469;-67
2021/01/14 03:55:55;;;;;;;3.13;1.80;;;;;;;;;;5052957;28;20439;-67
2021/01/14 03:58:21;;;;;;;2.80;2.30;;;;;;;;;;5051914;28;20488;-67
2021/01/14 04:00:47;;;;;;;3.17;2.63;;;;;;;;;;5052786;28;20474;-67
2021/01/14 04:03:13;;;;;;;3.20;2.33;;;;;;;;;;5051987;28;20463;-67
2021/01/14 04:05:39;;;;;;;2.80;2.33;;;;;;;;;;5051796;28;20422;-67
2021/01/14 04:08:05;;;;;;;4.23;2.50;;;;;;;;;;5051955;28;20425;-67
2021/01/14 04:10:31;;;;;;;4.50;2.80;;;;;;;;;;5053369;28;20434;-68
2021/01/14 04:12:57;;;;;;;3.63;2.60;;;;;;;;;;5040060;28;20449;-68
2021/01/14 04:15:23;;;;;;;4.03;3.10;;;;;;;;;;5041630;28;20412;-67
2021/01/14 04:17:49;;;;;;;3.97;2.80;;;;;;;;;;5056047;28;20436;-68
2021/01/14 04:20:15;;;;;;;2.80;2.20;;;;;;;;;;5056838;28;20477;-68
2021/01/14 04:22:41;;;;;;;2.80;2.53;;;;;;;;;;5054232;28;20980;-67
2021/01/14 04:25:08;;;;;;;3.67;2.60;;;;;;;;;;5056694;28;20461;-68
2021/01/14 04:27:34;;;;;;;3.70;3.40;;;;;;;;;;5056020;28;20439;-68
2021/01/14 04:30:03;;;;;;;3.20;2.77;;;;;;;;;;5056780;28;20485;-68
2021/01/14 04:32:31;;;;;;;4.87;3.40;;;;;;;;;;5055943;28;20526;-68
2021/01/14 04:34:58;;;;;;;3.83;2.73;;;;;;;;;;5056709;28;20458;-68
2021/01/14 04:37:24;;;;;;;3.47;2.73;;;;;;;;;;5049353;28;20425;-68
2021/01/14 04:39:50;;;;;;;3.17;2.60;;;;;;;;;;5036815;28;20414;-68
2021/01/14 04:42:18;;;;;;;7.80;2.80;;;;;;;;;;5046992;28;20483;-68
2021/01/14 04:44:44;;;;;;;4.00;2.50;;;;;;;;;;5055180;28;20474;-68
2021/01/14 04:47:14;;;;;;;3.00;2.50;;;;;;;;;;5055464;28;20450;-68
2021/01/14 04:49:41;;;;;;;3.37;2.80;;;;;;;;;;5055463;28;20944;-68
2021/01/14 04:52:16;;;;;;;3.73;3.00;;;;;;;;;;5055391;28;20455;-68
2021/01/14 04:54:43;;;;;;;3.10;2.30;;;;;;;;;;5056496;28;20389;-68
2021/01/14 04:57:18;;;;;;;4.17;2.60;;;;;;;;;;5055540;28;20507;-68
2021/01/14 04:59:54;;;;;;;3.57;3.00;;;;;;;;;;5056533;28;20799;-66
2021/01/14 05:02:24;;;;;;;5.03;3.43;;;;;;;;;;5054344;28;20520;-67
2021/01/14 05:04:54;;;;;;;3.00;2.73;;;;;;;;;;5056034;28;20401;-67
2021/01/14 05:07:30;;;;;;;3.30;2.83;;;;;;;;;;5053645;28;20427;-68
2021/01/14 05:09:59;;;;;;;2.77;2.03;;;;;;;;;;5036453;28;20398;-67
2021/01/14 05:12:25;;;;;;;3.53;2.60;;;;;;;;;;5036294;28;20424;-68
2021/01/14 05:14:51;;;;;;;4.50;2.70;;;;;;;;;;5055700;28;20904;-67
2021/01/14 05:17:17;;;;;;;3.90;3.03;;;;;;;;;;5055773;28;20425;-68
2021/01/14 05:19:43;;;;;;;5.57;2.93;;;;;;;;;;5055061;28;20958;-67
2021/01/14 05:22:09;;;;;;;4.50;3.00;;;;;;;;;;5055504;28;20543;-67
2021/01/14 05:24:35;;;;;;;5.10;3.13;;;;;;;;;;5053773;28;20971;-67
2021/01/14 05:27:01;;;;;;;4.00;3.27;;;;;;;;;;5055847;28;20396;-67
2021/01/14 05:29:27;;;;;;;3.00;2.50;;;;;;;;;;5054405;28;20447;-67
2021/01/14 05:31:53;;;;;;;8.43;2.90;;;;;;;;;;5055324;28;20436;-67
2021/01/14 05:34:19;;;;;;;7.17;3.70;;;;;;;;;;5039630;28;20775;-67
2021/01/14 05:36:52;;;;;;;5.10;3.17;;;;;;;;;;5036658;28;20414;-68
2021/01/14 05:39:18;;;;;;;5.00;3.27;;;;;;;;;;5042425;28;20438;-67
2021/01/14 05:41:44;;;;;;;6.57;3.80;;;;;;;;;;5054092;28;20477;-68
2021/01/14 05:44:10;;;;;;;3.47;3.03;;;;;;;;;;5055338;28;20933;-68
2021/01/14 05:46:36;;;;;;;4.73;4.23;;;;;;;;;;5054247;28;20498;-68
2021/01/14 05:49:03;;;;;;;4.60;3.70;;;;;;;;;;5035400;28;20421;-67
2021/01/14 05:51:33;;;;;;;4.40;3.50;;;;;;;;;;5035316;28;20425;-68
2021/01/14 05:54:03;;;;;;;4.10;3.30;;;;;;;;;;5055006;28;20461;-68
2021/01/14 05:56:32;;;;;;;5.53;3.30;;;;;;;;;;5055360;28;20408;-68
2021/01/14 05:58:58;;;;;;;5.00;3.27;;;;;;;;;;5035373;28;20424;-68
2021/01/14 06:01:24;;;;;;;4.57;3.93;;;;;;;;;;5035527;28;20483;-68
2021/01/14 06:03:50;;;;;;;4.60;3.50;;;;;;;;;;5035230;28;20417;-68
2021/01/14 06:06:17;;;;;;;5.77;4.20;;;;;;;;;;5034948;28;20774;-68
2021/01/14 06:08:43;;;;;;;6.73;3.80;;;;;;;;;;5034638;28;20459;-68
2021/01/14 06:11:38;;;;;;;4.43;3.70;;;;;;;;;;5035004;28;20463;-68
2021/01/14 06:14:04;;;;;;;5.93;3.80;;;;;;;;;;5045663;28;20445;-67
2021/01/14 06:16:31;;;;;;;4.47;3.23;;;;;;;;;;5054993;28;20453;-68
2021/01/14 06:19:06;;;;;;;5.73;3.07;;;;;;;;;;5036087;28;20478;-67
2021/01/14 06:21:43;;;;;;;8.10;3.00;;;;;;;;;;5034864;28;20998;-67
2021/01/14 06:24:18;;;;;;;9.90;4.30;;;;;;;;;;5049464;28;20418;-68
2021/01/14 06:26:43;;;;;;;5.53;4.10;;;;;;;;;;5034624;28;20585;-68
2021/01/14 06:29:20;;;;;;;5.83;3.93;;;;;;;;;;5034935;28;20532;-68
2021/01/14 06:31:46;;;;;;;4.70;3.60;;;;;;;;;;5034509;28;20421;-68
2021/01/14 06:34:16;;;;;;;5.57;3.97;;;;;;;;;;5053965;28;20454;-67
2021/01/14 06:36:44;;;;;;;5.37;4.20;;;;;;;;;;5054120;28;20420;-68
2021/01/14 06:39:11;;;;;;;8.73;4.80;;;;;;;;;;5034338;28;20924;-68
2021/01/14 06:41:38;;;;;;;10.70;5.10;;;;;;;;;;5033854;28;20552;-68
2021/01/14 06:44:06;;;;;;;5.43;4.07;;;;;;;;;;5051252;28;20421;-68
2021/01/14 06:46:33;;;;;;;11.00;4.30;;;;;;;;;;5054424;28;20485;-68
2021/01/14 06:49:04;;;;;;;5.63;3.70;;;;;;;;;;5035903;28;20425;-68
2021/01/14 06:51:42;;;;;;;5.00;4.50;;;;;;;;;;5034213;28;20457;-68
2021/01/14 06:54:11;;;;;;;5.03;3.97;;;;;;;;;;5052282;28;20786;-67
2021/01/14 06:56:57;;;;;;;5.83;4.07;;;;;;;;;;5054229;28;20415;-68
2021/01/14 06:59:24;;;;;;;7.77;4.23;;;;;;;;;;5034070;28;20450;-68
2021/01/14 07:02:11;;;;;;;9.23;4.80;;;;;;;;;;5034164;28;20872;-68
2021/01/14 07:04:43;;;;;;;6.47;4.90;;;;;;;;;;5035304;28;20805;-68
2021/01/14 07:07:27;;;;;;;5.37;3.80;;;;;;;;;;5057798;28;20799;-68
2021/01/14 07:10:05;;;;;;;6.17;4.20;;;;;;;;;;5063063;28;20393;-68
2021/01/14 07:12:33;;;;;;;12.50;5.20;;;;;;;;;;5057283;28;20444;-68
2021/01/14 07:15:03;;;;;;;5.87;4.13;;;;;;;;;;5057452;28;20420;-68
2021/01/14 07:17:34;;;;;;;6.30;4.30;;;;;;;;;;5053266;28;20416;-67
2021/01/14 07:20:00;;;;;;;8.43;3.83;;;;;;;;;;5055132;28;20408;-67
2021/01/14 07:22:27;;;;;;;4.10;3.40;;;;;;;;;;5051731;28;20847;-68
2021/01/14 07:24:54;;;;;;;6.30;3.90;;;;;;;;;;5054184;28;20409;-68
2021/01/14 07:27:20;;;;;;;9.03;5.13;;;;;;;;;;5052823;28;20471;-68
2021/01/14 07:29:48;;;;;;;5.43;4.53;;;;;;;;;;5053520;28;20488;-68
2021/01/14 07:32:14;;;;;;;9.50;5.40;;;;;;;;;;5036444;28;20452;-68
2021/01/14 07:34:44;;;;;;;8.23;4.50;;;;;;;;;;5033978;28;20424;-68
2021/01/14 07:37:14;;;;;;;9.03;4.43;;;;;;;;;;5049206;28;20425;-68
2021/01/14 07:39:46;;;;;;;7.10;4.73;;;;;;;;;;5051993;28;20504;-68
2021/01/14 07:42:28;;;;;;;11.50;4.67;;;;;;;;;;5036520;28;20455;-68
2021/01/14 07:44:59;;;;;;;7.30;4.10;;;;;;;;;;5033701;28;20424;-68
2021/01/14 07:47:26;;;;;;;8.80;5.70;;;;;;;;;;5033187;28;20421;-68
2021/01/14 07:49:52;;;;;;;7.80;4.63;;;;;;;;;;5033166;28;20913;-68
2021/01/14 07:52:34;;;;;;;7.50;4.93;;;;;;;;;;5049330;28;20539;-67
2021/01/14 07:55:07;;;;;;;7.10;4.60;;;;;;;;;;5053459;28;20419;-68
2021/01/14 07:57:46;;;;;;;6.23;4.37;;;;;;;;;;5044732;28;20491;-68
2021/01/14 08:00:31;;;;;;;6.85;4.30;;;;;;;;;;5048478;28;20808;-68
2021/01/14 08:03:15;;;;;;;7.07;5.40;;;;;;;;;;5044151;28;20201;-68
2021/01/14 08:05:56;;;;;;;5.40;4.03;;;;;;;;;;5048441;28;20429;-67
2021/01/14 08:08:31;;;;;;;7.20;4.50;;;;;;;;;;5048541;28;20409;-68
2021/01/14 08:11:06;;;;;;;5.93;4.23;;;;;;;;;;5045974;28;20428;-68
2021/01/14 08:13:32;;;;;;;6.03;4.40;;;;;;;;;;5046098;28;20424;-67
2021/01/14 08:15:59;;;;;;;5.40;4.10;;;;;;;;;;5045705;28;20516;-67
2021/01/14 08:18:25;;;;;;;5.70;3.73;;;;;;;;;;5051433;28;20416;-67
2021/01/14 08:21:10;;;;;;;5.77;4.30;;;;;;;;;;5049877;28;20453;-67
2021/01/14 08:23:41;;;;;;;14.40;4.30;;;;;;;;;;5043461;28;20422;-67
2021/01/14 08:26:11;;;;;;;9.67;4.23;;;;;;;;;;5046390;28;20422;-67
2021/01/14 08:28:37;;;;;;;5.47;4.10;;;;;;;;;;5040735;28;20421;-67
2021/01/14 08:31:03;;;;;;;6.30;4.17;;;;;;;;;;5044786;28;20423;-67
2021/01/14 08:33:30;;;;;;;5.40;4.23;;;;;;;;;;5049651;28;20413;-67
2021/01/14 08:36:03;;;;;;;5.13;3.80;;;;;;;;;;5050645;28;20435;-67
2021/01/14 08:38:31;;;;;;;8.20;4.60;;;;;;;;;;5050427;28;20412;-67
2021/01/14 08:41:01;;;;;;;8.47;4.77;;;;;;;;;;5049114;28;20556;-66
2021/01/14 08:43:41;;;;;;;5.17;3.90;;;;;;;;;;5048590;28;20764;-67
2021/01/14 08:46:07;;;;;;;3.90;3.43;;;;;;;;;;5049473;28;20497;-67
2021/01/14 08:48:33;;;;;;;5.30;4.00;;;;;;;;;;5042301;28;20418;-67
2021/01/14 08:50:59;;;;;;;6.70;3.77;;;;;;;;;;5040857;28;20427;-67
2021/01/14 08:53:29;;;;;;;4.33;3.37;;;;;;;;;;5049680;28;20428;-67
2021/01/14 08:55:59;;;;;;;5.30;3.83;;;;;;;;;;5050480;28;20420;-67
2021/01/14 08:58:54;;;;;;;5.73;4.27;;;;;;;;;;5043952;28;20438;-67
2021/01/14 09:01:24;;;;;;;4.37;3.73;;;;;;;;;;5042098;28;20481;-67
2021/01/14 09:03:52;;;;;;;8.00;3.87;;;;;;;;;;5052624;28;20938;-67
2021/01/14 09:06:32;;;;;;;6.77;3.97;;;;;;;;;;5052877;28;20470;-67
2021/01/14 09:08:59;;;;;;;5.70;4.07;;;;;;;;;;5052973;28;20891;-67
2021/01/14 09:11:25;;;;;;;6.93;4.47;;;;;;;;;;5052852;28;20456;-67
2021/01/14 09:14:04;;;;;;;4.00;3.37;;;;;;;;;;5051582;28;20430;-69
2021/01/14 09:16:30;;;;;;;5.43;3.50;;;;;;;;;;5052115;28;20447;-70
2021/01/14 09:18:56;;;;;;;5.00;3.60;;;;;;;;;;5053548;28;20408;-69
2021/01/14 09:21:22;;;;;;;5.53;4.63;;;;;;;;;;5052149;28;20470;-69
2021/01/14 09:23:48;;;;;;;6.93;4.50;;;;;;;;;;5052795;28;20455;-69
2021/01/14 09:26:15;;;;;;;5.37;4.03;;;;;;;;;;5052019;28;20482;-69
2021/01/14 09:28:41;;;;;;;8.90;4.03;;;;;;;;;;5051160;28;20417;-69
2021/01/14 09:31:09;;;;;;;7.77;4.83;;;;;;;;;;5047658;28;20751;-69
2021/01/14 09:33:36;;;;;;;6.83;4.50;;;;;;;;;;5043650;28;20423;-71
2021/01/14 09:36:23;;;;;;;5.97;4.20;;;;;;;;;;5051998;28;20420;-69
2021/01/14 09:38:59;;;;;;;12.83;5.10;;;;;;;;;;5053828;28;20432;-69
2021/01/14 09:41:33;;;;;;;6.60;4.50;;;;;;;;;;5066266;28;21327;-68
2021/01/14 09:44:07;;;;;;;5.90;3.90;;;;;;;;;;5053554;28;20409;-70
2021/01/14 09:46:40;;;;;;;6.50;4.60;;;;;;;;;;5052552;28;20421;-70
2021/01/14 09:49:09;;;;;;;4.67;4.17;;;;;;;;;;5055451;28;20455;-70
2021/01/14 09:51:35;;;;;;;5.90;4.33;;;;;;;;;;5050460;28;20776;-70
2021/01/14 09:54:03;;;;;;;5.30;3.50;;;;;;;;;;5053750;28;20421;-70
2021/01/14 09:56:32;;;;;;;7.57;4.47;;;;;;;;;;5049652;28;20436;-68
2021/01/14 09:58:59;;;;;;;6.47;4.03;;;;;;;;;;5052351;28;20423;-70
2021/01/14 10:01:33;;;;;;;6.03;3.70;;;;;;;;;;5051074;28;20457;-69
2021/01/14 10:04:03;;;;;;;4.77;4.27;;;;;;;;;;5047965;28;20928;-69
2021/01/14 10:06:30;;;;;;;5.83;4.10;;;;;;;;;;5050805;28;20428;-68
2021/01/14 10:08:57;;;;;;;6.87;3.67;;;;;;;;;;5052914;28;20791;-70
2021/01/14 10:11:25;;;;;;;8.82;3.80;;;;;;;;;;5050913;28;20424;-70
2021/01/14 10:13:52;;;;;;;11.30;4.67;;;;;;;;;;5043335;28;20177;-69
2021/01/14 10:16:24;;;;;;;3.70;3.30;;;;;;;;;;5046327;28;20439;-69
2021/01/14 10:18:51;;;;;;;7.77;3.90;;;;;;;;;;5052747;28;20936;-69
2021/01/14 10:21:24;;;;;;;5.00;3.60;;;;;;;;;;5051354;28;20456;-72
2021/01/14 10:23:50;;;;;;;6.90;4.07;;;;;;;;;;5051499;28;20424;-71
2021/01/14 10:26:29;;;;;;;8.63;5.57;;;;;;;;;;5047221;28;20421;-68
2021/01/14 10:28:56;;;;;;;7.50;4.30;;;;;;;;;;5068645;28;20232;-69
2021/01/14 10:31:35;;;;;;;6.10;4.80;;;;;;;;;;5050320;28;20484;-71
2021/01/14 10:34:01;;;;;;;5.53;3.88;;;;;;;;;;5047693;28;20424;-70
2021/01/14 10:36:43;;;;;;;9.10;4.27;;;;;;;;;;5047069;28;20190;-67
2021/01/14 10:39:09;;;;;;;8.07;4.70;;;;;;;;;;5047299;28;20490;-67
2021/01/14 10:41:35;;;;;;;7.70;5.05;;;;;;;;;;5052555;28;20450;-70
2021/01/14 10:44:07;;;;;;;5.00;3.22;;;;;;;;;;5050392;28;20909;-68
2021/01/14 10:46:34;;;;;;;7.73;2.23;;;;;;;;;;5057817;28;20191;-69
2021/01/14 10:49:10;;;;;;;7.87;2.60;;;;;;;;;;5055874;28;20435;-68
2021/01/14 10:51:36;;;;;;;2.80;2.07;;;-2.10;99.90;;;;;;5049145;28;20458;-74
2021/01/14 10:54:02;;;;;;;3.43;2.10;;;1.20;99.90;;;;;;5045947;28;20440;-73
2021/01/14 10:56:27;;;;;;;3.60;1.93;;;1.10;99.90;;;;;;5064904;28;20204;-74
2021/01/14 10:59:07;;;;;;;2.73;1.80;;;1.10;99.90;;;;;;5045883;28;20283;-75
2021/01/14 11:01:33;;;;;;;3.57;2.10;;;1.10;99.90;;;;;;5051370;28;20206;-74
2021/01/14 11:04:07;;;;;;;2.03;1.67;;;1.10;99.90;;;;;;5052136;28;20441;-74
2021/01/14 11:06:37;;;;;;;2.50;1.70;;;1.10;99.90;;;;;;5052692;28;20212;-70
2021/01/14 11:09:08;;;;;;;3.00;1.83;;;1.20;99.90;;;;;;5053599;28;20412;-69
2021/01/14 11:11:35;;;;;;;2.07;1.70;;;;;;;;;;5046446;28;23157;-68
2021/01/14 11:14:01;;;;;;;2.97;1.73;;;;;;;;;;5048508;28;20783;-70
2021/01/14 11:16:27;;;;;;;2.70;2.00;;;;;;;;;;5049446;28;20427;-70
2021/01/14 11:18:56;;;;;;;4.30;2.17;;;;;;;;;;5051073;28;20467;-69
2021/01/14 11:21:29;;;;;;;2.90;1.90;;;;;;;;;;5050480;28;20509;-71
2021/01/14 11:23:56;;;;;;;4.17;2.10;;;;;;;;;;5045950;28;20422;-70
2021/01/14 11:26:22;;;;;;;3.20;1.57;;;;;;;;;;5050671;28;20406;-71
2021/01/14 11:28:49;;;;;;;2.33;1.50;;;;;;;;;;5050934;28;20421;-73
2021/01/14 11:31:16;;;;;;;2.90;1.90;;;;;;;;;;5047726;28;20985;-75
2021/01/14 11:33:42;;;;;;;2.30;1.70;;;;;;;;;;5053028;28;20427;-73
2021/01/14 11:36:09;;;;;;;3.13;1.80;;;;;;;;;;5050248;28;20496;-73
2021/01/14 11:38:35;;;;;;;7.43;1.77;;;;;;;;;;5047110;28;20485;-73
2021/01/14 11:41:01;;;;;;;3.60;2.40;;;;;;;;;;5046749;28;20491;-73
2021/01/14 11:43:28;;;;;;;1.90;1.40;;;;;;;;;;5046292;28;20524;-72
2021/01/14 11:45:54;;;;;;;4.30;1.83;;;;;;;;;;5047287;28;20443;-72
2021/01/14 11:48:20;;;;;;;2.10;1.40;;;;;;;;;;5044626;28;21010;-73
2021/01/14 11:50:46;;;;;;;2.20;1.40;;;;;;;;;;5049176;28;20473;-73
2021/01/14 11:53:12;;;;;;;3.87;2.20;;;;;;;;;;5047580;28;21153;-73
2021/01/14 11:55:38;;;;;;;3.13;1.80;;;;;;;;;;5051149;28;20420;-73
2021/01/14 11:58:04;;;;;;;3.60;1.60;;;;;;;;;;5048104;28;20498;-74
2021/01/14 12:00:30;;;;;;;2.83;1.53;;;;;;;;;;5051929;28;20478;-73
2021/01/14 12:02:56;;;;;;;3.80;2.40;;;;;;;;;;5049989;28;20949;-73
2021/01/14 12:05:22;;;;;;;1.50;1.27;;;;;;;;;;5050299;28;20769;-73
2021/01/14 12:07:49;;;;;;;2.37;1.50;;;;;;;;;;5046732;28;20431;-73
2021/01/14 12:10:15;;;;;;;3.63;1.53;;;;;;;;;;5051005;28;20415;-73
2021/01/14 12:12:41;;;;;;;6.00;1.60;;;;;;;;;;5046409;28;20444;-73
2021/01/14 12:15:07;;;;;;;2.30;2.10;;;;;;;;;;5047786;28;20806;-74
2021/01/14 12:17:34;;;;;;;5.80;2.00;;;;;;;;;;5043213;28;20825;-74
2021/01/14 12:20:00;;;;;;;1.90;1.57;;;;;;;;;;5042983;28;20455;-73
2021/01/14 12:22:26;;;;;;;3.03;1.53;;;;;;;;;;5046648;28;20468;-73
2021/01/14 12:24:52;;;;;;;2.00;1.60;;;;;;;;;;5050396;28;20794;-73
2021/01/14 12:27:18;;;;;;;2.47;1.37;;;;;;;;;;5042916;28;20445;-72
2021/01/14 12:29:46;;;;;;;2.70;1.40;;;;;;;;;;5045445;28;20919;-70
2021/01/14 12:32:12;;;;;;;1.60;1.20;;;;;;;;;;5043293;28;20475;-71
2021/01/14 12:34:38;;;;;;;2.88;1.50;;;;;;;;;;5053057;28;20469;-72
2021/01/14 12:37:04;;;;;;;1.57;1.10;;;;;;;;;;5047344;28;20178;-71
2021/01/14 12:39:29;;;;;;;2.07;1.40;;;;;;;;;;5052061;28;20535;-70
2021/01/14 12:41:56;;;;;;;2.97;1.63;;;;;;;;;;5048083;28;20817;-68
2021/01/14 12:44:22;;;;;;;2.00;1.60;;;;;;;;;;5052619;28;20494;-70
2021/01/14 12:46:48;;;;;;;1.90;1.50;;;;;;;;;;5052118;28;20417;-72
2021/01/14 12:49:18;;;;;;;1.60;1.23;;;;;;;;;;5054192;28;20469;-72
2021/01/14 12:51:45;;;;;;;2.67;1.80;;;;;;;;;;5050775;28;20436;-74
2021/01/14 12:54:11;;;;;;;2.50;1.63;;;;;;;;;;5051779;28;20490;-73
2021/01/14 12:56:38;;;;;;;2.73;1.50;;;;;;;;;;5049218;28;20477;-75
2021/01/14 12:59:05;;;;;;;3.47;1.80;;;;;;;;;;5046614;28;21038;-71
2021/01/14 13:01:32;;;;;;;1.97;1.60;;;;;;;;;;5045321;28;20483;-71
2021/01/14 13:03:59;;;;;;;2.57;1.57;;;;;;;;;;5047128;28;20423;-69
2021/01/14 13:06:26;;;;;;;1.50;1.20;;;;;;;;;;5045675;28;20421;-71
2021/01/14 13:08:52;;;;;;;2.27;1.50;;;;;;;;;;5051520;28;20419;-68
2021/01/14 13:11:18;;;;;;;2.87;1.70;;;;;;;;;;5051821;28;20486;-72
2021/01/14 13:13:45;;;;;;;3.87;2.23;;;;;;;;;;5045462;28;20878;-71
2021/01/14 13:16:11;;;;;;;1.80;1.20;;;;;;;;;;5047727;28;20428;-71
2021/01/14 13:18:37;;;;;;;1.80;1.50;;;;;;;;;;5049052;28;21246;-72
2021/01/14 13:21:03;;;;;;;2.27;1.80;;;;;;;;;;5052879;28;20446;-70
2021/01/14 13:23:29;;;;;;;4.10;1.83;;;;;;;;;;5052228;28;20429;-70
2021/01/14 13:25:54;;;;;;;2.27;1.63;;;;;;;;;;5053649;28;20428;-70
2021/01/14 13:28:21;;;;;;;2.67;1.80;;;;;;;;;;5051736;28;20428;-70
2021/01/14 13:30:47;;;;;;;1.60;1.50;;;;;;;;;;5050203;28;20433;-71
2021/01/14 13:33:13;;;;;;;2.80;1.53;;;;;;;;;;5048526;28;20440;-71
2021/01/14 13:35:39;;;;;;;2.10;1.50;;;;;;;;;;5050027;28;20413;-70
2021/01/14 13:38:05;;;;;;;2.90;1.40;;;;;;;;;;5049862;28;20439;-71
2021/01/14 13:40:32;;;;;;;2.17;1.80;;;;;;;;;;5047606;28;20427;-71
2021/01/14 13:42:58;;;;;;;3.30;1.67;;;;;;;;;;5045080;28;20927;-71
2021/01/14 13:45:24;;;;;;;3.30;1.53;;;;;;;;;;5039796;28;20481;-72
2021/01/14 13:47:50;;;;;;;1.70;1.30;;;;;;;;;;5051473;28;20425;-72
2021/01/14 13:50:16;;;;;;;3.63;1.90;;;;;;;;;;5051203;28;20422;-71
2021/01/14 13:52:42;;;;;;;3.17;1.90;;;;;;;;;;5049472;28;20890;-71
2021/01/14 13:55:08;;;;;;;2.40;1.43;;;;;;;;;;5052000;28;20422;-72
2021/01/14 13:57:34;;;;;;;2.90;1.70;;;;;;;;;;5044710;28;20429;-71
2021/01/14 14:00:00;;;;;;;4.90;1.93;;;;;;;;;;5047222;28;20431;-72
2021/01/14 14:02:26;;;;;;;3.63;2.03;;;;;;;;;;5049303;28;20527;-72
2021/01/14 14:04:53;;;;;;;3.23;2.33;;;;;;;;;;5047122;28;20419;-71
2021/01/14 14:07:19;;;;;;;3.90;1.73;;;;;;;;;;5047148;28;20476;-72
2021/01/14 14:09:46;;;;;;;1.87;1.37;;;;;;;;;;5047994;28;20774;-71
2021/01/14 14:12:12;;;;;;;3.77;1.73;;;;;;;;;;5049653;28;20459;-71
2021/01/14 14:14:38;;;;;;;3.67;2.50;;;;;;;;;;5053256;28;20416;-71
2021/01/14 14:17:04;;;;;;;2.17;1.57;;;;;;;;;;5052611;28;20439;-71
2021/01/14 14:19:30;;;;;;;3.07;1.90;;;;;;;;;;5052074;28;20422;-71
2021/01/14 14:21:56;;;;;;;2.90;2.20;;;;;;;;;;5052736;28;20508;-72
2021/01/14 14:24:22;;;;;;;2.43;1.93;;;;;;;;;;5051794;28;20461;-71
2021/01/14 14:26:48;;;;;;;4.10;1.90;;;;;;;;;;5051893;28;20452;-71
2021/01/14 14:29:14;;;;;;;2.40;1.97;;;;;;;;;;5049082;28;20466;-72
2021/01/14 14:31:44;;;;;;;2.73;1.70;;;;;;;;;;5045190;28;20443;-70
2021/01/14 14:34:10;;;;;;;2.30;1.83;;;;;;;;;;5049904;28;20427;-71
2021/01/14 14:36:37;;;;;;;2.90;2.23;;;;;;;;;;5049704;28;20423;-71
2021/01/14 14:39:04;;;;;;;3.97;2.00;;;;;;;;;;5045246;28;20436;-72
2021/01/14 14:41:30;;;;;;;2.47;2.10;;;;;;;;;;5043177;28;20479;-70
2021/01/14 14:43:56;;;;;;;2.63;2.07;;;;;;;;;;5047814;28;20432;-71
2021/01/14 14:46:23;;;;;;;3.80;1.80;;;;;;;;;;5048929;28;20850;-71
2021/01/14 14:48:50;;;;;;;2.30;1.90;;;;;;;;;;5049307;28;20425;-71